EIN39C EIDW-EDDH
Flight info
| Callsign | EIN39C |
|---|---|
| Flight time | N/A |
| Altitude | 39000 |
| Route | ENDEQ3J ENDEQ Q36 ALAVA Z195 MALUD UL975 WAL M16 DOLAS L603 LAMSO DCT PETIK DCT ANDIK DCT GASTU DCT OSTOR T904 RIBSO RIBSO3D |
| Aircraft | A20N/M-SDE2E3FGHIRWXY/LB1 |
Departure
| Time | 2026-05-01 15:05 |
|---|---|
| Airport | Dublin Airport (EIDW) |
Arrival
| Time | N/A |
|---|---|
| Airport | Hamburg Helmut Schmidt Airport (EDDH) |
| Time | Latitude | Longitude | Altitude | Speed | Heading |
|---|---|---|---|---|---|
| 2026-05-01 14:43 | 53.42567 | -6.24526 | 252 ft | 0 kts | 353° |
| 2026-05-01 14:54 | 53.42554 | -6.24523 | 253 ft | 2 kts | 353° |
| 2026-05-01 14:54 | 53.42539 | -6.24520 | 253 ft | 2 kts | 353° |
| 2026-05-01 14:54 | 53.42524 | -6.24517 | 253 ft | 2 kts | 353° |
| 2026-05-01 14:55 | 53.42509 | -6.24514 | 253 ft | 2 kts | 353° |
| 2026-05-01 14:55 | 53.42495 | -6.24511 | 253 ft | 2 kts | 353° |
| 2026-05-01 14:55 | 53.42485 | -6.24509 | 253 ft | 2 kts | 354° |
| 2026-05-01 14:55 | 53.42474 | -6.24497 | 253 ft | 2 kts | 292° |
| 2026-05-01 14:56 | 53.42474 | -6.24475 | 253 ft | 0 kts | 240° |
| 2026-05-01 14:56 | 53.42477 | -6.24467 | 253 ft | 1 kts | 230° |
| 2026-05-01 14:56 | 53.42479 | -6.24463 | 253 ft | 0 kts | 233° |
| 2026-05-01 14:57 | 53.42479 | -6.24464 | 253 ft | 0 kts | 233° |
| 2026-05-01 14:58 | 53.42472 | -6.24480 | 253 ft | 2 kts | 234° |
| 2026-05-01 14:58 | 53.42457 | -6.24523 | 253 ft | 6 kts | 242° |
| 2026-05-01 14:58 | 53.42430 | -6.24613 | 253 ft | 10 kts | 243° |
| 2026-05-01 14:58 | 53.42382 | -6.24733 | 253 ft | 14 kts | 234° |
| 2026-05-01 14:59 | 53.42395 | -6.24883 | 253 ft | 17 kts | 332° |
| 2026-05-01 14:59 | 53.42514 | -6.24971 | 253 ft | 19 kts | 335° |
| 2026-05-01 14:59 | 53.42633 | -6.25057 | 253 ft | 17 kts | 336° |
| 2026-05-01 14:59 | 53.42725 | -6.25171 | 253 ft | 16 kts | 307° |
| 2026-05-01 15:00 | 53.42911 | -6.25326 | 253 ft | 14 kts | 336° |
| 2026-05-01 15:00 | 53.43001 | -6.25392 | 253 ft | 13 kts | 337° |
| 2026-05-01 15:00 | 53.43087 | -6.25454 | 253 ft | 13 kts | 337° |
| 2026-05-01 15:01 | 53.43171 | -6.25515 | 253 ft | 13 kts | 337° |
| 2026-05-01 15:01 | 53.43258 | -6.25578 | 253 ft | 14 kts | 336° |
| 2026-05-01 15:01 | 53.43350 | -6.25647 | 253 ft | 14 kts | 337° |
| 2026-05-01 15:01 | 53.43408 | -6.25564 | 253 ft | 14 kts | 96° |
| 2026-05-01 15:02 | 53.43397 | -6.25395 | 253 ft | 14 kts | 96° |
| 2026-05-01 15:02 | 53.43391 | -6.25278 | 253 ft | 15 kts | 92° |
| 2026-05-01 15:02 | 53.43380 | -6.25036 | 253 ft | 16 kts | 96° |
| 2026-05-01 15:02 | 53.43369 | -6.24845 | 253 ft | 16 kts | 95° |
| 2026-05-01 15:03 | 53.43357 | -6.24649 | 253 ft | 17 kts | 95° |
| 2026-05-01 15:03 | 53.43432 | -6.24558 | 252 ft | 16 kts | 2° |
| 2026-05-01 15:03 | 53.43525 | -6.24565 | 252 ft | 9 kts | 302° |
| 2026-05-01 15:03 | 53.43527 | -6.24648 | 252 ft | 0 kts | 276° |
| 2026-05-01 15:04 | 53.43527 | -6.24650 | 252 ft | 4 kts | 276° |
| 2026-05-01 15:04 | 53.43552 | -6.25177 | 253 ft | 83 kts | 273° |
| 2026-05-01 15:04 | 53.43628 | -6.26515 | 253 ft | 146 kts | 276° |
| 2026-05-01 15:04 | 53.43726 | -6.28418 | 514 ft | 174 kts | 273° |
| 2026-05-01 15:05 | 53.43874 | -6.30492 | 1087 ft | 185 kts | 287° |
| 2026-05-01 15:05 | 53.44620 | -6.32213 | 1898 ft | 187 kts | 316° |
| 2026-05-01 15:05 | 53.45574 | -6.33670 | 2605 ft | 193 kts | 310° |
| 2026-05-01 15:05 | 53.46608 | -6.35236 | 3118 ft | 214 kts | 333° |
| 2026-05-01 15:06 | 53.48135 | -6.35582 | 3700 ft | 233 kts | 7° |
| 2026-05-01 15:06 | 53.49725 | -6.35207 | 4638 ft | 234 kts | 6° |
| 2026-05-01 15:06 | 53.51280 | -6.34457 | 5449 ft | 239 kts | 34° |
| 2026-05-01 15:06 | 53.52390 | -6.32475 | 6207 ft | 241 kts | 66° |
| 2026-05-01 15:07 | 53.52748 | -6.29713 | 6766 ft | 251 kts | 95° |
| 2026-05-01 15:07 | 53.52645 | -6.26715 | 7324 ft | 267 kts | 97° |
| 2026-05-01 15:07 | 53.52539 | -6.23501 | 7909 ft | 282 kts | 96° |
| 2026-05-01 15:07 | 53.52461 | -6.20187 | 8571 ft | 288 kts | 95° |
| 2026-05-01 15:08 | 53.52396 | -6.16813 | 8971 ft | 290 kts | 95° |
| 2026-05-01 15:08 | 53.52338 | -6.13427 | 9092 ft | 291 kts | 96° |
| 2026-05-01 15:08 | 53.52275 | -6.10060 | 9096 ft | 290 kts | 97° |
| 2026-05-01 15:08 | 53.52078 | -6.06715 | 9098 ft | 288 kts | 103° |
| 2026-05-01 15:09 | 53.51678 | -6.03410 | 9278 ft | 293 kts | 107° |
| 2026-05-01 15:09 | 53.51198 | -6.00072 | 10009 ft | 297 kts | 108° |
| 2026-05-01 15:09 | 53.50716 | -5.96753 | 10892 ft | 297 kts | 108° |
| 2026-05-01 15:09 | 53.50214 | -5.93321 | 11371 ft | 313 kts | 108° |
| 2026-05-01 15:10 | 53.49690 | -5.89721 | 11955 ft | 323 kts | 108° |
| 2026-05-01 15:10 | 53.48639 | -5.82355 | 13450 ft | 330 kts | 106° |
| 2026-05-01 15:10 | 53.48167 | -5.78596 | 14206 ft | 333 kts | 106° |
| 2026-05-01 15:11 | 53.47702 | -5.74798 | 14969 ft | 336 kts | 106° |
| 2026-05-01 15:11 | 53.46743 | -5.67115 | 16471 ft | 342 kts | 106° |
| 2026-05-01 15:11 | 53.46249 | -5.63222 | 17176 ft | 345 kts | 107° |
| 2026-05-01 15:12 | 53.45749 | -5.59292 | 17863 ft | 349 kts | 107° |
| 2026-05-01 15:12 | 53.44803 | -5.51278 | 19186 ft | 358 kts | 103° |
| 2026-05-01 15:12 | 53.44516 | -5.47131 | 19829 ft | 363 kts | 99° |
| 2026-05-01 15:13 | 53.44174 | -5.34292 | 21697 ft | 374 kts | 97° |
| 2026-05-01 15:14 | 53.43959 | -5.25506 | 22887 ft | 380 kts | 98° |
| 2026-05-01 15:14 | 53.43845 | -5.21084 | 23454 ft | 383 kts | 98° |
| 2026-05-01 15:14 | 53.43597 | -5.12131 | 24528 ft | 389 kts | 98° |
| 2026-05-01 15:15 | 53.43310 | -5.03038 | 25565 ft | 396 kts | 98° |
| 2026-05-01 15:15 | 53.43009 | -4.93811 | 26566 ft | 402 kts | 98° |
| 2026-05-01 15:16 | 53.42700 | -4.84447 | 27521 ft | 407 kts | 98° |
| 2026-05-01 15:16 | 53.42386 | -4.74955 | 28420 ft | 413 kts | 98° |
| 2026-05-01 15:17 | 53.42061 | -4.65341 | 29281 ft | 418 kts | 98° |
| 2026-05-01 15:18 | 53.41548 | -4.50707 | 30556 ft | 425 kts | 97° |
| 2026-05-01 15:18 | 53.41372 | -4.45766 | 30966 ft | 428 kts | 97° |
| 2026-05-01 15:19 | 53.40821 | -4.30723 | 32094 ft | 435 kts | 98° |
| 2026-05-01 15:19 | 53.40444 | -4.20643 | 32922 ft | 434 kts | 98° |
| 2026-05-01 15:19 | 53.40252 | -4.15637 | 33334 ft | 433 kts | 98° |
| 2026-05-01 15:20 | 53.39860 | -4.05638 | 34098 ft | 432 kts | 98° |
| 2026-05-01 15:20 | 53.39696 | -4.00639 | 34480 ft | 433 kts | 95° |
| 2026-05-01 15:20 | 53.39685 | -3.95613 | 34862 ft | 434 kts | 92° |
| 2026-05-01 15:21 | 53.39845 | -3.90586 | 35238 ft | 434 kts | 89° |
| 2026-05-01 15:21 | 53.40094 | -3.85581 | 35597 ft | 434 kts | 88° |
| 2026-05-01 15:21 | 53.40354 | -3.80585 | 35914 ft | 433 kts | 88° |
| 2026-05-01 15:21 | 53.40614 | -3.75526 | 36217 ft | 432 kts | 88° |
| 2026-05-01 15:22 | 53.41099 | -3.65601 | 36774 ft | 431 kts | 89° |
| 2026-05-01 15:22 | 53.41201 | -3.60549 | 37028 ft | 429 kts | 93° |
| 2026-05-01 15:22 | 53.41123 | -3.55581 | 37268 ft | 428 kts | 96° |
| 2026-05-01 15:23 | 53.40919 | -3.50643 | 37496 ft | 427 kts | 97° |
| 2026-05-01 15:23 | 53.40695 | -3.45721 | 37712 ft | 427 kts | 97° |
| 2026-05-01 15:23 | 53.40468 | -3.40786 | 37916 ft | 427 kts | 97° |
| 2026-05-01 15:23 | 53.40241 | -3.35851 | 38115 ft | 427 kts | 97° |
| 2026-05-01 15:24 | 53.40013 | -3.30901 | 38312 ft | 427 kts | 98° |
| 2026-05-01 15:24 | 53.39784 | -3.25926 | 38492 ft | 427 kts | 98° |
| 2026-05-01 15:24 | 53.39555 | -3.21014 | 38640 ft | 428 kts | 98° |
| 2026-05-01 15:24 | 53.39322 | -3.16058 | 38780 ft | 429 kts | 98° |
| 2026-05-01 15:25 | 53.39098 | -3.11076 | 38917 ft | 430 kts | 97° |
| 2026-05-01 15:25 | 53.38912 | -3.06092 | 39047 ft | 431 kts | 97° |
| 2026-05-01 15:25 | 53.38553 | -2.96104 | 39167 ft | 433 kts | 97° |
| 2026-05-01 15:26 | 53.38174 | -2.86033 | 39178 ft | 433 kts | 97° |
| 2026-05-01 15:26 | 53.37786 | -2.76047 | 39161 ft | 432 kts | 97° |
| 2026-05-01 15:27 | 53.37387 | -2.66046 | 39154 ft | 432 kts | 97° |
| 2026-05-01 15:28 | 53.36770 | -2.51030 | 39141 ft | 433 kts | 97° |
| 2026-05-01 15:28 | 53.36346 | -2.40984 | 39139 ft | 433 kts | 97° |
| 2026-05-01 15:29 | 53.35634 | -2.25955 | 39130 ft | 431 kts | 101° |
| 2026-05-01 15:30 | 53.33672 | -2.06226 | 39132 ft | 431 kts | 103° |
| 2026-05-01 15:31 | 53.30592 | -1.76800 | 39139 ft | 431 kts | 103° |
| 2026-05-01 15:32 | 53.28497 | -1.57159 | 39150 ft | 431 kts | 103° |
| 2026-05-01 15:34 | 53.25301 | -1.27751 | 39168 ft | 430 kts | 104° |